createdAt,value
2023-03-15T00:01:58.795Z,91.11
2023-03-15T00:06:51.063Z,92.01
2023-03-15T00:11:42.857Z,91.75
2023-03-15T00:16:34.717Z,91.78
2023-03-15T00:33:58.036Z,92.02
2023-03-15T00:38:51.368Z,92.31
2023-03-15T00:43:43.771Z,91.92
2023-03-15T00:48:36.573Z,91.89
2023-03-15T00:53:28.347Z,91.58
2023-03-15T00:58:22.244Z,92.20
2023-03-15T01:03:15.215Z,92.30
2023-03-15T01:08:06.939Z,92.21
2023-03-15T01:12:59.908Z,92.17
2023-03-15T01:17:51.463Z,92.26
2023-03-15T01:22:43.112Z,91.80
2023-03-15T01:27:34.952Z,92.33
2023-03-15T01:32:26.984Z,92.40
2023-03-15T01:37:18.824Z,92.67
2023-03-15T01:42:11.319Z,92.20
2023-03-15T01:47:02.940Z,92.38
2023-03-15T01:52:17.975Z,92.60
2023-03-15T01:57:24.455Z,92.64
2023-03-15T02:02:16.457Z,92.38
2023-03-15T02:07:09.687Z,92.19
2023-03-15T02:12:02.528Z,92.34
2023-03-15T02:16:54.151Z,93.02
2023-03-15T02:21:58.485Z,92.55
2023-03-15T02:26:55.974Z,92.05
2023-03-15T02:31:50.071Z,92.44
2023-03-15T02:36:41.742Z,92.00
2023-03-15T02:41:43.373Z,92.30
2023-03-15T02:46:36.197Z,92.05
2023-03-15T02:51:29.731Z,92.38
2023-03-15T02:56:21.627Z,92.30
2023-03-15T03:01:14.105Z,92.29
2023-03-15T03:06:06.966Z,92.03
2023-03-15T03:10:58.596Z,92.00
2023-03-15T03:15:58.618Z,91.99
2023-03-15T03:20:50.240Z,92.00
2023-03-15T03:25:41.895Z,92.15
2023-03-15T03:30:35.585Z,92.52
2023-03-15T03:35:27.488Z,92.46
2023-03-15T03:40:19.298Z,92.40
2023-03-15T03:45:11.409Z,92.29
2023-03-15T03:50:03.155Z,92.93
2023-03-15T03:54:54.766Z,93.12
2023-03-15T03:59:46.455Z,93.31
2023-03-15T04:04:41.440Z,93.74
2023-03-15T04:09:37.577Z,93.50
2023-03-15T04:14:29.528Z,93.84
2023-03-15T04:19:21.106Z,94.25
2023-03-15T04:24:13.306Z,94.96
2023-03-15T04:29:05.833Z,94.74
2023-03-15T04:33:57.439Z,95.39
2023-03-15T04:38:49.728Z,95.29
2023-03-15T04:43:41.533Z,95.77
2023-03-15T04:48:33.274Z,96.21
2023-03-15T04:53:24.835Z,97.23
2023-03-15T04:58:17.122Z,97.43
2023-03-15T05:03:08.814Z,97.01
2023-03-15T05:08:01.227Z,96.18
2023-03-15T05:12:52.812Z,96.61
2023-03-15T05:17:46.603Z,97.26
2023-03-15T05:22:39.395Z,97.86
2023-03-15T05:27:32.772Z,98.61
2023-03-15T05:32:26.963Z,98.82
2023-03-15T05:37:18.544Z,99.33
2023-03-15T05:42:10.127Z,99.55
2023-03-15T05:47:01.711Z,99.78
2023-03-15T05:51:53.363Z,100.00
2023-03-15T05:56:44.909Z,100.00
2023-03-15T06:01:36.651Z,100.00
2023-03-15T06:06:28.250Z,100.00
2023-03-15T06:11:19.941Z,100.00
2023-03-15T06:16:11.664Z,100.00
2023-03-15T06:21:03.947Z,100.00
2023-03-15T06:25:57.300Z,100.00
2023-03-15T06:30:48.902Z,100.00
2023-03-15T06:35:41.503Z,100.00
2023-03-15T06:40:33.165Z,100.00
2023-03-15T06:45:24.769Z,100.00
2023-03-15T06:50:17.120Z,100.00
2023-03-15T06:55:10.370Z,100.00
2023-03-15T07:00:01.946Z,100.00
2023-03-15T07:04:53.750Z,100.00
2023-03-15T07:09:45.432Z,100.00
2023-03-15T07:14:37.151Z,100.00
2023-03-15T07:19:29.123Z,100.00
2023-03-15T07:24:20.790Z,100.00
2023-03-15T07:29:12.401Z,100.00
2023-03-15T07:34:04.268Z,100.00
2023-03-15T07:38:55.857Z,100.00
2023-03-15T07:43:47.391Z,98.84
2023-03-15T07:48:39.098Z,98.44
2023-03-15T07:53:30.714Z,98.47
2023-03-15T07:58:22.437Z,97.70
2023-03-15T08:03:14.343Z,97.12
2023-03-15T08:08:06.529Z,96.84
2023-03-15T08:12:58.184Z,97.22
2023-03-15T08:17:49.836Z,96.22
2023-03-15T08:22:44.801Z,94.96
2023-03-15T08:27:36.416Z,93.67
2023-03-15T08:32:28.039Z,93.33
2023-03-15T08:37:20.196Z,91.03
2023-03-15T08:42:12.083Z,89.23
2023-03-15T08:47:05.285Z,88.60
2023-03-15T08:51:57.117Z,86.75
2023-03-15T08:56:48.789Z,85.11
2023-03-15T09:01:40.534Z,85.83
2023-03-15T09:06:32.179Z,85.60
2023-03-15T09:11:23.900Z,86.56
2023-03-15T09:16:15.794Z,86.43
2023-03-15T09:21:07.457Z,85.62
2023-03-15T09:25:59.393Z,85.04
2023-03-15T09:30:51.371Z,85.05
2023-03-15T09:35:43.230Z,84.48
2023-03-15T09:40:40.311Z,84.34
2023-03-15T09:45:32.312Z,85.56
2023-03-15T09:50:31.843Z,83.52
2023-03-15T09:55:27.102Z,83.70
2023-03-15T10:00:31.069Z,84.00
2023-03-15T10:05:40.273Z,83.86
2023-03-15T10:10:36.974Z,82.82
2023-03-15T10:16:04.084Z,82.83
2023-03-15T10:21:07.646Z,82.64
2023-03-15T10:26:00.303Z,83.58
2023-03-15T10:30:52.851Z,84.40
2023-03-15T10:35:44.637Z,84.25
2023-03-15T10:40:59.836Z,84.22
2023-03-15T10:46:04.742Z,84.21
2023-03-15T10:50:57.934Z,84.49
2023-03-15T10:56:07.751Z,84.05
2023-03-15T11:01:01.889Z,84.79
2023-03-15T11:05:58.749Z,82.87
2023-03-15T11:11:00.302Z,84.15
2023-03-15T11:16:04.365Z,83.61
2023-03-15T11:20:57.283Z,83.03
2023-03-15T11:25:49.659Z,82.48
2023-03-15T11:30:41.788Z,81.64
2023-03-15T11:35:41.025Z,82.62
2023-03-15T11:40:48.107Z,82.25
2023-03-15T11:45:44.982Z,80.99
2023-03-15T11:50:39.199Z,82.05
2023-03-15T11:55:32.882Z,81.62
2023-03-15T12:00:36.525Z,81.12
2023-03-15T12:06:21.180Z,80.20
2023-03-15T12:11:34.447Z,80.58
2023-03-15T12:16:28.972Z,79.40
2023-03-15T12:21:26.601Z,79.41
2023-03-15T12:26:30.918Z,77.99
2023-03-15T12:31:23.026Z,77.62
2023-03-15T12:36:42.110Z,78.24
2023-03-15T12:41:35.589Z,78.17
2023-03-15T12:46:39.497Z,77.97
2023-03-15T12:52:01.326Z,76.75
2023-03-15T12:57:07.250Z,76.68
2023-03-15T13:02:01.515Z,77.18
2023-03-15T13:07:48.936Z,77.36
2023-03-15T13:13:21.304Z,78.29
2023-03-15T13:18:18.613Z,78.75
2023-03-15T13:23:27.550Z,78.64
2023-03-15T13:28:24.974Z,79.90
2023-03-15T13:33:31.702Z,81.15
2023-03-15T13:38:33.423Z,82.06
2023-03-15T13:43:37.000Z,83.31
2023-03-15T13:48:42.247Z,85.22
2023-03-15T13:53:48.967Z,87.05
2023-03-15T13:58:43.282Z,87.52
2023-03-15T14:03:35.390Z,87.81
2023-03-15T14:08:33.449Z,88.14
2023-03-15T14:13:29.473Z,89.55
2023-03-15T14:18:26.336Z,89.62
2023-03-15T14:23:22.068Z,90.53
2023-03-15T14:28:16.762Z,91.88
2023-03-15T14:33:43.104Z,91.14
2023-03-15T14:38:37.780Z,92.75
2023-03-15T14:43:29.510Z,92.93
2023-03-15T14:48:27.700Z,93.71
2023-03-15T14:53:21.193Z,94.58
2023-03-15T14:58:18.174Z,95.90
2023-03-15T15:03:29.638Z,96.57
2023-03-15T15:08:24.488Z,96.92
2023-03-15T15:13:25.957Z,97.80
2023-03-15T15:18:18.296Z,99.47
2023-03-15T15:23:15.746Z,98.99
2023-03-15T15:28:08.642Z,100.00
2023-03-15T15:33:00.399Z,99.79
2023-03-15T15:37:52.491Z,100.00
2023-03-15T15:42:47.615Z,100.00
2023-03-15T15:47:40.011Z,100.00
2023-03-15T15:52:33.573Z,100.00
2023-03-15T15:57:26.635Z,100.00
2023-03-15T16:02:22.328Z,100.00
2023-03-15T16:07:15.441Z,100.00
2023-03-15T16:12:13.914Z,100.00
2023-03-15T16:17:27.540Z,100.00
2023-03-15T16:22:22.602Z,100.00
2023-03-15T16:27:18.441Z,100.00
2023-03-15T16:32:32.843Z,100.00
2023-03-15T16:37:32.997Z,100.00
2023-03-15T16:42:25.856Z,100.00
2023-03-15T16:47:18.038Z,100.00
2023-03-15T16:52:11.786Z,100.00
2023-03-15T16:57:03.808Z,100.00
2023-03-15T17:01:55.624Z,100.00
2023-03-15T17:11:46.726Z,100.00
2023-03-15T17:16:38.433Z,100.00
2023-03-15T17:21:34.821Z,100.00
2023-03-15T17:26:31.608Z,100.00
2023-03-15T17:31:25.726Z,100.00
2023-03-15T17:36:24.611Z,100.00
2023-03-15T17:41:21.493Z,100.00
2023-03-15T17:46:13.665Z,100.00
2023-03-15T17:51:06.122Z,100.00
2023-03-15T17:55:57.726Z,100.00
2023-03-15T18:00:56.333Z,100.00
2023-03-15T18:05:48.042Z,100.00
2023-03-15T18:10:41.988Z,100.00
2023-03-15T18:15:34.173Z,100.00
2023-03-15T18:20:26.114Z,100.00
2023-03-15T18:25:25.345Z,100.00
2023-03-15T18:30:19.258Z,100.00
2023-03-15T18:35:16.164Z,100.00
2023-03-15T18:40:08.900Z,100.00
2023-03-15T18:45:01.060Z,100.00
2023-03-15T18:49:55.492Z,100.00
2023-03-15T18:54:53.189Z,100.00
2023-03-15T18:59:44.983Z,100.00
2023-03-15T19:04:36.974Z,100.00
2023-03-15T19:09:28.862Z,100.00
2023-03-15T19:14:21.078Z,100.00
2023-03-15T19:19:17.066Z,100.00
2023-03-15T19:24:09.315Z,100.00
2023-03-15T19:29:03.593Z,100.00
2023-03-15T19:33:55.682Z,100.00
2023-03-15T19:38:47.395Z,100.00
2023-03-15T19:43:42.409Z,100.00
2023-03-15T19:48:36.068Z,100.00
2023-03-15T19:53:28.596Z,100.00
2023-03-15T19:58:20.278Z,100.00
2023-03-15T20:03:12.822Z,100.00
2023-03-15T20:08:04.840Z,100.00
2023-03-15T20:12:59.318Z,100.00
2023-03-15T20:17:51.568Z,100.00
2023-03-15T20:22:45.071Z,100.00
2023-03-15T20:27:37.438Z,100.00
2023-03-15T20:32:29.917Z,100.00
2023-03-15T20:37:23.234Z,100.00
2023-03-15T20:42:15.028Z,100.00
2023-03-15T20:47:06.770Z,100.00
2023-03-15T20:51:59.584Z,100.00
2023-03-15T20:56:51.873Z,100.00
2023-03-15T21:01:43.630Z,100.00
2023-03-15T21:06:35.409Z,100.00
2023-03-15T21:11:27.427Z,100.00
2023-03-15T21:16:19.168Z,100.00
2023-03-15T21:21:12.200Z,100.00
2023-03-15T21:26:07.477Z,100.00
2023-03-15T21:31:00.043Z,100.00
2023-03-15T21:35:52.010Z,100.00
2023-03-15T21:40:48.015Z,100.00
2023-03-15T21:45:41.225Z,100.00
2023-03-15T21:50:33.120Z,100.00
2023-03-15T21:55:25.065Z,100.00
2023-03-15T22:00:18.506Z,100.00
2023-03-15T22:05:13.616Z,100.00
2023-03-15T22:10:06.345Z,100.00
2023-03-15T22:15:05.324Z,100.00
2023-03-15T22:19:57.438Z,100.00
2023-03-15T22:24:49.585Z,100.00
2023-03-15T22:29:41.818Z,100.00
2023-03-15T22:34:34.325Z,100.00
2023-03-15T22:39:26.309Z,100.00
2023-03-15T22:44:17.943Z,100.00
2023-03-15T22:49:09.711Z,100.00
2023-03-15T22:54:01.693Z,100.00
2023-03-15T22:58:55.770Z,100.00
2023-03-15T23:03:47.383Z,100.00
2023-03-15T23:08:39.079Z,100.00
2023-03-15T23:13:31.193Z,100.00
2023-03-15T23:18:22.804Z,100.00
2023-03-15T23:23:14.420Z,100.00
2023-03-15T23:28:07.423Z,100.00
2023-03-15T23:33:00.311Z,100.00
2023-03-15T23:37:53.243Z,100.00
2023-03-15T23:42:45.004Z,100.00
2023-03-15T23:47:36.973Z,100.00
2023-03-15T23:52:29.100Z,100.00
2023-03-15T23:57:21.155Z,100.00
